PWSweather.com
Personal Weather Stations
Station Observations
PICKERING
North Yorkshire, PickeringGB

North YorkshirePickeringGB

Lat: 54.2494, Lon: -0.7725

Elevation: 192

Station Type: Oregon Scientific WMR100

http://www.yorkshirewalker.co.uk/weather/

High Low Average
Temperature 47.1°F8.4°C 31.1°F-0.5°C 42.3°F5.7°C
Dew Point 41.0°F5.0°C 23.0°F-5.0°C 35.1°F1.7°C
Winds 9.2 mph 14.8 kmh Calm Calm 4.0 mph SW6.4 kmh SW
Wind Gusts 17.2 mph27.7 kmh -- 8.0 mph12.9 kmh
Humidity 79% 65% 75%
Pressure 29.45 in997.3 mb 29.18 in988.1 mb -
Precipitation 0.00 in0.0 mm - -
Hour Temp Dew Point Humidity Winds Wind Gusts Pressure Precip Precip Rate Daily Precip Total
12:00 AM 46.4°F8.0°C 41.0°F5.0°C 77% 3.6 mph WSW5.8 kmh WSW 6.5 mph10.5 kmh 29.45 in997.3 mb 0.00 in0.0 mm 0.00 in0.0 mm 0.00 in0.0 mm
12:05 AM 46.4°F8.0°C 41.0°F5.0°C 77% 3.8 mph SW6.1 kmh SW 7.6 mph12.2 kmh 29.45 in997.3 mb 0.00 in0.0 mm 0.00 in0.0 mm 0.00 in0.0 mm
12:10 AM 46.4°F8.0°C 41.0°F5.0°C 77% 3.6 mph SW5.8 kmh SW 7.6 mph12.2 kmh 29.45 in997.3 mb 0.00 in0.0 mm 0.00 in0.0 mm 0.00 in0.0 mm
12:15 AM 46.4°F8.0°C 41.0°F5.0°C 77% 3.4 mph SW5.5 kmh SW 4.9 mph7.9 kmh 29.45 in997.3 mb 0.00 in0.0 mm 0.00 in0.0 mm 0.00 in0.0 mm
12:20 AM 46.4°F8.0°C 41.0°F5.0°C 77% 3.5 mph SW5.6 kmh SW 4.9 mph7.9 kmh 29.45 in997.3 mb 0.00 in0.0 mm 0.00 in0.0 mm 0.00 in0.0 mm
12:25 AM 46.2°F7.9°C 39.2°F4.0°C 77% 3.4 mph SSW5.5 kmh SSW 4.9 mph7.9 kmh 29.45 in997.3 mb 0.00 in0.0 mm 0.00 in0.0 mm 0.00 in0.0 mm
12:30 AM 46.2°F7.9°C 39.2°F4.0°C 77% 3.0 mph SW4.8 kmh SW 6.3 mph10.1 kmh 29.45 in997.3 mb 0.00 in0.0 mm 0.00 in0.0 mm 0.00 in0.0 mm
12:35 AM 46.2°F7.9°C 39.2°F4.0°C 77% 3.2 mph SW5.1 kmh SW 6.3 mph10.1 kmh 29.45 in997.3 mb 0.00 in0.0 mm 0.00 in0.0 mm 0.00 in0.0 mm
12:40 AM 46.2°F7.9°C 39.2°F4.0°C 77% 3.3 mph SW5.3 kmh SW 8.1 mph13.0 kmh 29.45 in997.3 mb 0.00 in0.0 mm 0.00 in0.0 mm 0.00 in0.0 mm
12:45 AM 46.2°F7.9°C 39.2°F4.0°C 77% 2.8 mph WSW4.5 kmh WSW 8.1 mph13.0 kmh 29.45 in997.3 mb 0.00 in0.0 mm 0.00 in0.0 mm 0.00 in0.0 mm
12:50 AM 46.2°F7.9°C 39.2°F4.0°C 77% 2.4 mph WSW3.9 kmh WSW 6.3 mph10.1 kmh 29.45 in997.3 mb 0.00 in0.0 mm 0.00 in0.0 mm 0.00 in0.0 mm
12:55 AM 46.2°F7.9°C 39.2°F4.0°C 77% 3.1 mph SW5.0 kmh SW 6.3 mph10.1 kmh 29.45 in997.3 mb 0.00 in0.0 mm 0.00 in0.0 mm 0.00 in0.0 mm
01:00 AM 46.2°F7.9°C 39.2°F4.0°C 77% 3.7 mph SSW6.0 kmh SSW 4.9 mph7.9 kmh 29.45 in997.3 mb 0.00 in0.0 mm 0.00 in0.0 mm 0.00 in0.0 mm
01:05 AM 46.2°F7.9°C 39.2°F4.0°C 77% 4.0 mph SSW6.4 kmh SSW 7.2 mph11.6 kmh 29.45 in997.3 mb 0.00 in0.0 mm 0.00 in0.0 mm 0.00 in0.0 mm
01:10 AM 46.2°F7.9°C 39.2°F4.0°C 77% 3.6 mph SSW5.8 kmh SSW 7.2 mph11.6 kmh 29.45 in997.3 mb 0.00 in0.0 mm 0.00 in0.0 mm 0.00 in0.0 mm
01:15 AM 46.2°F7.9°C 39.2°F4.0°C 78% 2.3 mph SSW3.7 kmh SSW 4.5 mph7.2 kmh 29.45 in997.3 mb 0.00 in0.0 mm 0.00 in0.0 mm 0.00 in0.0 mm
01:20 AM 46.2°F7.9°C 39.2°F4.0°C 78% 2.0 mph SSW3.2 kmh SSW 4.0 mph6.4 kmh 29.41 in995.9 mb 0.00 in0.0 mm 0.00 in0.0 mm 0.00 in0.0 mm
01:25 AM 46.2°F7.9°C 39.2°F4.0°C 78% 3.4 mph SSW5.5 kmh SSW 8.1 mph13.0 kmh 29.41 in995.9 mb 0.00 in0.0 mm 0.00 in0.0 mm 0.00 in0.0 mm
01:30 AM 46.4°F8.0°C 41.0°F5.0°C 77% 3.7 mph SSW6.0 kmh SSW 8.1 mph13.0 kmh 29.41 in995.9 mb 0.00 in0.0 mm 0.00 in0.0 mm 0.00 in0.0 mm
01:35 AM 46.4°F8.0°C 41.0°F5.0°C 77% 3.5 mph SSW5.6 kmh SSW 7.6 mph12.2 kmh 29.41 in995.9 mb 0.00 in0.0 mm 0.00 in0.0 mm 0.00 in0.0 mm
01:40 AM 46.4°F8.0°C 41.0°F5.0°C 78% 3.9 mph SSW6.3 kmh SSW 7.6 mph12.2 kmh 29.41 in995.9 mb 0.00 in0.0 mm 0.00 in0.0 mm 0.00 in0.0 mm
01:45 AM 46.2°F7.9°C 39.2°F4.0°C 78% 3.9 mph SSW6.3 kmh SSW 6.3 mph10.1 kmh 29.41 in995.9 mb 0.00 in0.0 mm 0.00 in0.0 mm 0.00 in0.0 mm
01:50 AM 46.2°F7.9°C 39.2°F4.0°C 78% 3.7 mph SW6.0 kmh SW 5.8 mph9.3 kmh 29.41 in995.9 mb 0.00 in0.0 mm 0.00 in0.0 mm 0.00 in0.0 mm
01:55 AM 46.2°F7.9°C 39.2°F4.0°C 78% 4.8 mph SW7.7 kmh SW 9.6 mph15.4 kmh 29.41 in995.9 mb 0.00 in0.0 mm 0.00 in0.0 mm 0.00 in0.0 mm
02:00 AM 46.2°F7.9°C 39.2°F4.0°C 78% 5.3 mph SSW8.5 kmh SSW 10.7 mph17.2 kmh 29.41 in995.9 mb 0.00 in0.0 mm 0.00 in0.0 mm 0.00 in0.0 mm
02:05 AM 46.2°F7.9°C 39.2°F4.0°C 78% 4.5 mph SSW7.2 kmh SSW 10.7 mph17.2 kmh 29.39 in995.3 mb 0.00 in0.0 mm 0.00 in0.0 mm 0.00 in0.0 mm
02:10 AM 46.2°F7.9°C 39.2°F4.0°C 77% 5.0 mph SSW8.0 kmh SSW 10.7 mph17.2 kmh 29.39 in995.3 mb 0.00 in0.0 mm 0.00 in0.0 mm 0.00 in0.0 mm
02:15 AM 46.2°F7.9°C 39.2°F4.0°C 77% 4.8 mph SSW7.7 kmh SSW 9.4 mph15.1 kmh 29.39 in995.3 mb 0.00 in0.0 mm 0.00 in0.0 mm 0.00 in0.0 mm
02:20 AM 46.2°F7.9°C 39.2°F4.0°C 77% 4.4 mph SSW7.1 kmh SSW 9.4 mph15.1 kmh 29.39 in995.3 mb 0.00 in0.0 mm 0.00 in0.0 mm 0.00 in0.0 mm
02:25 AM 46.2°F7.9°C 39.2°F4.0°C 77% 5.1 mph SSW8.2 kmh SSW 10.1 mph16.3 kmh 29.39 in995.3 mb 0.00 in0.0 mm 0.00 in0.0 mm 0.00 in0.0 mm
02:30 AM 46.2°F7.9°C 39.2°F4.0°C 77% 6.8 mph SW10.9 kmh SW 10.1 mph16.3 kmh 29.39 in995.3 mb 0.00 in0.0 mm 0.00 in0.0 mm 0.00 in0.0 mm
02:35 AM 46.2°F7.9°C 39.2°F4.0°C 77% 6.3 mph SSW10.1 kmh SSW 10.5 mph16.9 kmh 29.39 in995.3 mb 0.00 in0.0 mm 0.00 in0.0 mm 0.00 in0.0 mm
02:40 AM 46.2°F7.9°C 39.2°F4.0°C 78% 7.0 mph SSW11.3 kmh SSW 10.5 mph16.9 kmh 29.39 in995.3 mb 0.00 in0.0 mm 0.00 in0.0 mm 0.00 in0.0 mm
02:45 AM 46.2°F7.9°C 39.2°F4.0°C 78% 7.1 mph SSW11.4 kmh SSW 11.0 mph17.7 kmh 29.39 in995.3 mb 0.00 in0.0 mm 0.00 in0.0 mm 0.00 in0.0 mm
02:50 AM 46.2°F7.9°C 39.2°F4.0°C 78% 6.6 mph SW10.6 kmh SW 11.9 mph19.2 kmh 29.36 in994.2 mb 0.00 in0.0 mm 0.00 in0.0 mm 0.00 in0.0 mm
02:55 AM 46.2°F7.9°C 39.2°F4.0°C 78% 5.8 mph SW9.3 kmh SW 11.9 mph19.2 kmh 29.36 in994.2 mb 0.00 in0.0 mm 0.00 in0.0 mm 0.00 in0.0 mm
03:00 AM 46.2°F7.9°C 39.2°F4.0°C 78% 4.3 mph SSW6.9 kmh SSW 9.8 mph15.8 kmh 29.36 in994.2 mb 0.00 in0.0 mm 0.00 in0.0 mm 0.00 in0.0 mm
03:05 AM 46.2°F7.9°C 39.2°F4.0°C 78% 6.1 mph SSW9.8 kmh SSW 13.9 mph22.4 kmh 29.36 in994.2 mb 0.00 in0.0 mm 0.00 in0.0 mm 0.00 in0.0 mm
03:10 AM 46.2°F7.9°C 39.2°F4.0°C 78% 6.1 mph SSW9.8 kmh SSW 13.9 mph22.4 kmh 29.36 in994.2 mb 0.00 in0.0 mm 0.00 in0.0 mm 0.00 in0.0 mm
03:15 AM 46.2°F7.9°C 39.2°F4.0°C 78% 5.1 mph SSW8.2 kmh SSW 8.7 mph14.0 kmh 29.36 in994.2 mb 0.00 in0.0 mm 0.00 in0.0 mm 0.00 in0.0 mm
03:20 AM 46.0°F7.8°C 39.2°F4.0°C 78% 5.6 mph SSW9.0 kmh SSW 8.7 mph14.0 kmh 29.36 in994.2 mb 0.00 in0.0 mm 0.00 in0.0 mm 0.00 in0.0 mm
03:25 AM 45.9°F7.7°C 39.2°F4.0°C 78% 5.1 mph S8.2 kmh S 8.5 mph13.7 kmh 29.36 in994.2 mb 0.00 in0.0 mm 0.00 in0.0 mm 0.00 in0.0 mm
03:30 AM 45.9°F7.7°C 39.2°F4.0°C 79% 5.9 mph S9.5 kmh S 10.1 mph16.3 kmh 29.36 in994.2 mb 0.00 in0.0 mm 0.00 in0.0 mm 0.00 in0.0 mm
03:35 AM 46.0°F7.8°C 39.2°F4.0°C 79% 7.1 mph SSW11.4 kmh SSW 12.1 mph19.5 kmh 29.33 in993.2 mb 0.00 in0.0 mm 0.00 in0.0 mm 0.00 in0.0 mm
03:40 AM 45.9°F7.7°C 39.2°F4.0°C 79% 6.4 mph SSW10.3 kmh SSW 12.1 mph19.5 kmh 29.33 in993.2 mb 0.00 in0.0 mm 0.00 in0.0 mm 0.00 in0.0 mm
03:45 AM 45.9°F7.7°C 39.2°F4.0°C 79% 6.1 mph SSW9.8 kmh SSW 8.7 mph14.0 kmh 29.33 in993.2 mb 0.00 in0.0 mm 0.00 in0.0 mm 0.00 in0.0 mm
03:50 AM 45.9°F7.7°C 39.2°F4.0°C 79% 6.0 mph SSW9.7 kmh SSW 8.5 mph13.7 kmh 29.33 in993.2 mb 0.00 in0.0 mm 0.00 in0.0 mm 0.00 in0.0 mm
03:55 AM 45.9°F7.7°C 39.2°F4.0°C 79% 4.7 mph SW7.6 kmh SW 8.5 mph13.7 kmh 29.33 in993.2 mb 0.00 in0.0 mm 0.00 in0.0 mm 0.00 in0.0 mm
04:00 AM 46.0°F7.8°C 39.2°F4.0°C 79% 4.3 mph SW6.9 kmh SW 7.6 mph12.2 kmh 29.33 in993.2 mb 0.00 in0.0 mm 0.00 in0.0 mm 0.00 in0.0 mm
04:05 AM 46.0°F7.8°C 39.2°F4.0°C 79% 4.7 mph SW7.6 kmh SW 7.6 mph12.2 kmh 29.33 in993.2 mb 0.00 in0.0 mm 0.00 in0.0 mm 0.00 in0.0 mm
04:10 AM 46.0°F7.8°C 39.2°F4.0°C 79% 4.4 mph SSW7.1 kmh SSW 7.6 mph12.2 kmh 29.33 in993.2 mb 0.00 in0.0 mm 0.00 in0.0 mm 0.00 in0.0 mm
04:15 AM 46.0°F7.8°C 39.2°F4.0°C 79% 3.5 mph SSW5.6 kmh SSW 6.5 mph10.5 kmh 29.33 in993.2 mb 0.00 in0.0 mm 0.00 in0.0 mm 0.00 in0.0 mm
04:20 AM 45.9°F7.7°C 39.2°F4.0°C 79% 3.5 mph SW5.6 kmh SW 6.5 mph10.5 kmh 29.33 in993.2 mb 0.00 in0.0 mm 0.00 in0.0 mm 0.00 in0.0 mm
04:25 AM 45.9°F7.7°C 39.2°F4.0°C 79% 3.3 mph SSW5.3 kmh SSW 4.9 mph7.9 kmh 29.33 in993.2 mb 0.00 in0.0 mm 0.00 in0.0 mm 0.00 in0.0 mm
04:30 AM 45.9°F7.7°C 39.2°F4.0°C 79% 4.1 mph SSW6.6 kmh SSW 9.8 mph15.8 kmh 29.33 in993.2 mb 0.00 in0.0 mm 0.00 in0.0 mm 0.00 in0.0 mm
04:35 AM 46.0°F7.8°C 39.2°F4.0°C 79% 4.9 mph SSW7.9 kmh SSW 9.8 mph15.8 kmh 29.33 in993.2 mb 0.00 in0.0 mm 0.00 in0.0 mm 0.00 in0.0 mm
04:40 AM 46.0°F7.8°C 39.2°F4.0°C 79% 4.6 mph SSW7.4 kmh SSW 8.1 mph13.0 kmh 29.33 in993.2 mb 0.00 in0.0 mm 0.00 in0.0 mm 0.00 in0.0 mm
04:45 AM 46.2°F7.9°C 41.0°F5.0°C 79% 4.5 mph SSW7.2 kmh SSW 6.5 mph10.5 kmh 29.33 in993.2 mb 0.00 in0.0 mm 0.00 in0.0 mm 0.00 in0.0 mm
04:50 AM 46.2°F7.9°C 41.0°F5.0°C 79% 5.4 mph SW8.7 kmh SW 8.7 mph14.0 kmh 29.30 in992.2 mb 0.00 in0.0 mm 0.00 in0.0 mm 0.00 in0.0 mm
04:55 AM 46.2°F7.9°C 41.0°F5.0°C 79% 6.1 mph SW9.8 kmh SW 10.5 mph16.9 kmh 29.30 in992.2 mb 0.00 in0.0 mm 0.00 in0.0 mm 0.00 in0.0 mm
05:00 AM 46.2°F7.9°C 41.0°F5.0°C 79% 5.5 mph SW8.9 kmh SW 10.5 mph16.9 kmh 29.30 in992.2 mb 0.00 in0.0 mm 0.00 in0.0 mm 0.00 in0.0 mm
05:05 AM 46.4°F8.0°C 41.0°F5.0°C 79% 4.0 mph SW6.4 kmh SW 6.0 mph9.7 kmh 29.30 in992.2 mb 0.00 in0.0 mm 0.00 in0.0 mm 0.00 in0.0 mm
05:10 AM 46.4°F8.0°C 41.0°F5.0°C 78% 4.0 mph SW6.4 kmh SW 6.5 mph10.5 kmh 29.30 in992.2 mb 0.00 in0.0 mm 0.00 in0.0 mm 0.00 in0.0 mm
05:15 AM 46.4°F8.0°C 41.0°F5.0°C 78% 4.6 mph SSW7.4 kmh SSW 6.5 mph10.5 kmh 29.30 in992.2 mb 0.00 in0.0 mm 0.00 in0.0 mm 0.00 in0.0 mm
05:20 AM 46.4°F8.0°C 41.0°F5.0°C 78% 4.3 mph SSW6.9 kmh SSW 6.5 mph10.5 kmh 29.30 in992.2 mb 0.00 in0.0 mm 0.00 in0.0 mm 0.00 in0.0 mm
05:25 AM 46.4°F8.0°C 41.0°F5.0°C 78% 4.4 mph SSW7.1 kmh SSW 8.1 mph13.0 kmh 29.30 in992.2 mb 0.00 in0.0 mm 0.00 in0.0 mm 0.00 in0.0 mm
05:30 AM 46.4°F8.0°C 41.0°F5.0°C 78% 4.9 mph SSW7.9 kmh SSW 8.9 mph14.3 kmh 29.30 in992.2 mb 0.00 in0.0 mm 0.00 in0.0 mm 0.00 in0.0 mm
05:35 AM 46.4°F8.0°C 41.0°F5.0°C 78% 5.1 mph SSW8.2 kmh SSW 8.9 mph14.3 kmh 29.30 in992.2 mb 0.00 in0.0 mm 0.00 in0.0 mm 0.00 in0.0 mm
05:40 AM 46.4°F8.0°C 41.0°F5.0°C 78% 5.5 mph SW8.9 kmh SW 8.7 mph14.0 kmh 29.30 in992.2 mb 0.00 in0.0 mm 0.00 in0.0 mm 0.00 in0.0 mm
05:45 AM 46.4°F8.0°C 41.0°F5.0°C 78% 4.9 mph SW7.9 kmh SW 8.7 mph14.0 kmh 29.30 in992.2 mb 0.00 in0.0 mm 0.00 in0.0 mm 0.00 in0.0 mm
05:50 AM 46.4°F8.0°C 41.0°F5.0°C 78% 4.6 mph SW7.4 kmh SW 8.7 mph14.0 kmh 29.27 in991.2 mb 0.00 in0.0 mm 0.00 in0.0 mm 0.00 in0.0 mm
05:55 AM 46.4°F8.0°C 41.0°F5.0°C 78% 4.4 mph SW7.1 kmh SW 6.5 mph10.5 kmh 29.27 in991.2 mb 0.00 in0.0 mm 0.00 in0.0 mm 0.00 in0.0 mm
06:00 AM 46.4°F8.0°C 41.0°F5.0°C 78% 5.4 mph SSW8.7 kmh SSW 9.8 mph15.8 kmh 29.27 in991.2 mb 0.00 in0.0 mm 0.00 in0.0 mm 0.00 in0.0 mm
06:05 AM 46.6°F8.1°C 41.0°F5.0°C 78% 6.8 mph SW10.9 kmh SW 9.8 mph15.8 kmh 29.27 in991.2 mb 0.00 in0.0 mm 0.00 in0.0 mm 0.00 in0.0 mm
06:10 AM 46.6°F8.1°C 41.0°F5.0°C 78% 6.7 mph SW10.8 kmh SW 17.2 mph27.7 kmh 29.27 in991.2 mb 0.00 in0.0 mm 0.00 in0.0 mm 0.00 in0.0 mm
06:15 AM 46.6°F8.1°C 41.0°F5.0°C 78% 6.6 mph SSW10.6 kmh SSW 17.2 mph27.7 kmh 29.27 in991.2 mb 0.00 in0.0 mm 0.00 in0.0 mm 0.00 in0.0 mm
06:20 AM 46.6°F8.1°C 41.0°F5.0°C 78% 6.0 mph SSW9.7 kmh SSW 8.7 mph14.0 kmh 29.27 in991.2 mb 0.00 in0.0 mm 0.00 in0.0 mm 0.00 in0.0 mm
06:25 AM 46.6°F8.1°C 41.0°F5.0°C 78% 6.3 mph SW10.1 kmh SW 9.6 mph15.4 kmh 29.27 in991.2 mb 0.00 in0.0 mm 0.00 in0.0 mm 0.00 in0.0 mm
06:30 AM 46.8°F8.2°C 41.0°F5.0°C 78% 5.5 mph SW8.9 kmh SW 9.6 mph15.4 kmh 29.27 in991.2 mb 0.00 in0.0 mm 0.00 in0.0 mm 0.00 in0.0 mm
06:35 AM 46.8°F8.2°C 41.0°F5.0°C 78% 4.8 mph SW7.7 kmh SW 7.6 mph12.2 kmh 29.27 in991.2 mb 0.00 in0.0 mm 0.00 in0.0 mm 0.00 in0.0 mm
06:40 AM 46.8°F8.2°C 41.0°F5.0°C 78% 5.1 mph SSW8.2 kmh SSW 8.7 mph14.0 kmh 29.27 in991.2 mb 0.00 in0.0 mm 0.00 in0.0 mm 0.00 in0.0 mm
06:45 AM 46.8°F8.2°C 41.0°F5.0°C 78% 6.4 mph SW10.3 kmh SW 12.5 mph20.1 kmh 29.27 in991.2 mb 0.00 in0.0 mm 0.00 in0.0 mm 0.00 in0.0 mm
06:50 AM 46.6°F8.1°C 41.0°F5.0°C 78% 7.0 mph SW11.3 kmh SW 12.5 mph20.1 kmh 29.24 in990.2 mb 0.00 in0.0 mm 0.00 in0.0 mm 0.00 in0.0 mm
06:55 AM 46.6°F8.1°C 41.0°F5.0°C 78% 7.4 mph SW11.9 kmh SW 12.5 mph20.1 kmh 29.24 in990.2 mb 0.00 in0.0 mm 0.00 in0.0 mm 0.00 in0.0 mm
07:00 AM 46.6°F8.1°C 41.0°F5.0°C 78% 5.9 mph SSW9.5 kmh SSW 11.0 mph17.7 kmh 29.24 in990.2 mb 0.00 in0.0 mm 0.00 in0.0 mm 0.00 in0.0 mm
07:05 AM 46.6°F8.1°C 41.0°F5.0°C 78% 5.7 mph SSW9.2 kmh SSW 10.3 mph16.6 kmh 29.24 in990.2 mb 0.00 in0.0 mm 0.00 in0.0 mm 0.00 in0.0 mm
07:10 AM 46.8°F8.2°C 41.0°F5.0°C 78% 6.0 mph S9.7 kmh S 9.2 mph14.8 kmh 29.24 in990.2 mb 0.00 in0.0 mm 0.00 in0.0 mm 0.00 in0.0 mm
07:15 AM 46.8°F8.2°C 41.0°F5.0°C 78% 7.3 mph SSW11.7 kmh SSW 9.8 mph15.8 kmh 29.24 in990.2 mb 0.00 in0.0 mm 0.00 in0.0 mm 0.00 in0.0 mm
07:20 AM 46.8°F8.2°C 41.0°F5.0°C 78% 8.3 mph SW13.4 kmh SW 13.9 mph22.4 kmh 29.24 in990.2 mb 0.00 in0.0 mm 0.00 in0.0 mm 0.00 in0.0 mm
07:25 AM 46.8°F8.2°C 41.0°F5.0°C 78% 7.7 mph SW12.4 kmh SW 13.9 mph22.4 kmh 29.24 in990.2 mb 0.00 in0.0 mm 0.00 in0.0 mm 0.00 in0.0 mm
07:30 AM 46.8°F8.2°C 41.0°F5.0°C 78% 7.4 mph SW11.9 kmh SW 11.0 mph17.7 kmh 29.24 in990.2 mb 0.00 in0.0 mm 0.00 in0.0 mm 0.00 in0.0 mm
07:35 AM 46.8°F8.2°C 41.0°F5.0°C 78% 7.4 mph SSW11.9 kmh SSW 11.0 mph17.7 kmh 29.24 in990.2 mb 0.00 in0.0 mm 0.00 in0.0 mm 0.00 in0.0 mm
07:40 AM 46.8°F8.2°C 41.0°F5.0°C 78% 6.5 mph SSW10.5 kmh SSW 12.5 mph20.1 kmh 29.24 in990.2 mb 0.00 in0.0 mm 0.00 in0.0 mm 0.00 in0.0 mm
07:45 AM 46.8°F8.2°C 41.0°F5.0°C 78% 5.5 mph SSW8.9 kmh SSW 12.5 mph20.1 kmh 29.24 in990.2 mb 0.00 in0.0 mm 0.00 in0.0 mm 0.00 in0.0 mm
07:50 AM 46.8°F8.2°C 41.0°F5.0°C 78% 5.8 mph SSW9.3 kmh SSW 12.5 mph20.1 kmh 29.24 in990.2 mb 0.00 in0.0 mm 0.00 in0.0 mm 0.00 in0.0 mm
07:55 AM 46.8°F8.2°C 41.0°F5.0°C 78% 5.8 mph SW9.3 kmh SW 8.1 mph13.0 kmh 29.24 in990.2 mb 0.00 in0.0 mm 0.00 in0.0 mm 0.00 in0.0 mm
08:00 AM 46.8°F8.2°C 41.0°F5.0°C 78% 6.3 mph SSW10.1 kmh SSW 10.1 mph16.3 kmh 29.24 in990.2 mb 0.00 in0.0 mm 0.00 in0.0 mm 0.00 in0.0 mm
08:05 AM 46.9°F8.3°C 41.0°F5.0°C 78% 5.9 mph S9.5 kmh S 10.1 mph16.3 kmh 29.24 in990.2 mb 0.00 in0.0 mm 0.00 in0.0 mm 0.00 in0.0 mm
08:10 AM 46.9°F8.3°C 41.0°F5.0°C 78% 6.3 mph SSW10.1 kmh SSW 11.0 mph17.7 kmh 29.24 in990.2 mb 0.00 in0.0 mm 0.00 in0.0 mm 0.00 in0.0 mm
08:15 AM 46.9°F8.3°C 41.0°F5.0°C 78% 7.5 mph SW12.1 kmh SW 11.0 mph17.7 kmh 29.24 in990.2 mb 0.00 in0.0 mm 0.00 in0.0 mm 0.00 in0.0 mm
08:20 AM 46.9°F8.3°C 41.0°F5.0°C 78% 6.5 mph SW10.5 kmh SW 10.3 mph16.6 kmh 29.24 in990.2 mb 0.00 in0.0 mm 0.00 in0.0 mm 0.00 in0.0 mm
08:25 AM 46.9°F8.3°C 41.0°F5.0°C 78% 5.4 mph SW8.7 kmh SW 8.1 mph13.0 kmh 29.24 in990.2 mb 0.00 in0.0 mm 0.00 in0.0 mm 0.00 in0.0 mm
08:30 AM 46.9°F8.3°C 41.0°F5.0°C 78% 6.3 mph SW10.1 kmh SW 12.5 mph20.1 kmh 29.24 in990.2 mb 0.00 in0.0 mm 0.00 in0.0 mm 0.00 in0.0 mm
08:35 AM 46.9°F8.3°C 41.0°F5.0°C 78% 5.4 mph SW8.7 kmh SW 12.5 mph20.1 kmh 29.24 in990.2 mb 0.00 in0.0 mm 0.00 in0.0 mm 0.00 in0.0 mm
08:40 AM 46.9°F8.3°C 41.0°F5.0°C 78% 5.5 mph SW8.9 kmh SW 8.1 mph13.0 kmh 29.24 in990.2 mb 0.00 in0.0 mm 0.00 in0.0 mm 0.00 in0.0 mm
08:45 AM 46.9°F8.3°C 41.0°F5.0°C 78% 6.3 mph SW10.1 kmh SW 8.1 mph13.0 kmh 29.24 in990.2 mb 0.00 in0.0 mm 0.00 in0.0 mm 0.00 in0.0 mm
08:50 AM 46.9°F8.3°C 41.0°F5.0°C 78% 6.5 mph SSW10.5 kmh SSW 12.3 mph19.8 kmh 29.24 in990.2 mb 0.00 in0.0 mm 0.00 in0.0 mm 0.00 in0.0 mm
08:55 AM 46.9°F8.3°C 41.0°F5.0°C 79% 6.6 mph SW10.6 kmh SW 12.3 mph19.8 kmh 29.24 in990.2 mb 0.00 in0.0 mm 0.00 in0.0 mm 0.00 in0.0 mm
09:00 AM 46.9°F8.3°C 41.0°F5.0°C 79% 6.1 mph SW9.8 kmh SW 12.3 mph19.8 kmh 29.24 in990.2 mb 0.00 in0.0 mm 0.00 in0.0 mm 0.00 in0.0 mm
09:05 AM 46.8°F8.2°C 41.0°F5.0°C 79% 4.7 mph SW7.6 kmh SW 9.4 mph15.1 kmh 29.21 in989.2 mb 0.00 in0.0 mm 0.00 in0.0 mm 0.00 in0.0 mm
09:10 AM 46.8°F8.2°C 41.0°F5.0°C 79% 4.4 mph SW7.1 kmh SW 9.4 mph15.1 kmh 29.21 in989.2 mb 0.00 in0.0 mm 0.00 in0.0 mm 0.00 in0.0 mm
09:15 AM 46.8°F8.2°C 41.0°F5.0°C 79% 4.7 mph SW7.6 kmh SW 5.8 mph9.3 kmh 29.21 in989.2 mb 0.00 in0.0 mm 0.00 in0.0 mm 0.00 in0.0 mm
09:20 AM 46.9°F8.3°C 41.0°F5.0°C 79% 4.2 mph SW6.8 kmh SW 6.3 mph10.1 kmh 29.24 in990.2 mb 0.00 in0.0 mm 0.00 in0.0 mm 0.00 in0.0 mm
09:25 AM 47.1°F8.4°C 41.0°F5.0°C 79% 4.5 mph WSW7.2 kmh WSW 7.6 mph12.2 kmh 29.24 in990.2 mb 0.00 in0.0 mm 0.00 in0.0 mm 0.00 in0.0 mm
09:30 AM 47.1°F8.4°C 41.0°F5.0°C 79% 4.1 mph WSW6.6 kmh WSW 7.6 mph12.2 kmh 29.24 in990.2 mb 0.00 in0.0 mm 0.00 in0.0 mm 0.00 in0.0 mm
09:35 AM 47.1°F8.4°C 41.0°F5.0°C 79% 3.8 mph WSW6.1 kmh WSW 6.5 mph10.5 kmh 29.24 in990.2 mb 0.00 in0.0 mm 0.00 in0.0 mm 0.00 in0.0 mm
09:40 AM 47.1°F8.4°C 41.0°F5.0°C 79% 4.8 mph SW7.7 kmh SW 9.8 mph15.8 kmh 29.24 in990.2 mb 0.00 in0.0 mm 0.00 in0.0 mm 0.00 in0.0 mm
09:45 AM 47.1°F8.4°C 41.0°F5.0°C 79% 4.6 mph SW7.4 kmh SW 9.8 mph15.8 kmh 29.24 in990.2 mb 0.00 in0.0 mm 0.00 in0.0 mm 0.00 in0.0 mm
09:50 AM 46.9°F8.3°C 41.0°F5.0°C 79% 3.7 mph SW6.0 kmh SW 6.9 mph11.1 kmh 29.21 in989.2 mb 0.00 in0.0 mm 0.00 in0.0 mm 0.00 in0.0 mm
09:55 AM 46.9°F8.3°C 41.0°F5.0°C 79% 2.7 mph SW4.3 kmh SW 6.9 mph11.1 kmh 29.21 in989.2 mb 0.00 in0.0 mm 0.00 in0.0 mm 0.00 in0.0 mm
10:00 AM 46.9°F8.3°C 41.0°F5.0°C 79% 2.8 mph SW4.5 kmh SW 5.4 mph8.7 kmh 29.21 in989.2 mb 0.00 in0.0 mm 0.00 in0.0 mm 0.00 in0.0 mm
10:05 AM 46.9°F8.3°C 41.0°F5.0°C 79% 3.9 mph WSW6.3 kmh WSW 5.4 mph8.7 kmh 29.21 in989.2 mb 0.00 in0.0 mm 0.00 in0.0 mm 0.00 in0.0 mm
10:10 AM 46.8°F8.2°C 41.0°F5.0°C 79% 6.2 mph WSW10.0 kmh WSW 9.8 mph15.8 kmh 29.21 in989.2 mb 0.00 in0.0 mm 0.00 in0.0 mm 0.00 in0.0 mm
10:15 AM 46.4°F8.0°C 41.0°F5.0°C 79% 7.1 mph W11.4 kmh W 9.8 mph15.8 kmh 29.21 in989.2 mb 0.00 in0.0 mm 0.00 in0.0 mm 0.00 in0.0 mm
10:20 AM 46.0°F7.8°C 39.2°F4.0°C 79% 5.2 mph NW8.4 kmh NW 9.8 mph15.8 kmh 29.24 in990.2 mb 0.00 in0.0 mm 0.00 in0.0 mm 0.00 in0.0 mm
10:25 AM 45.9°F7.7°C 39.2°F4.0°C 79% 4.8 mph WNW7.7 kmh WNW 8.9 mph14.3 kmh 29.24 in990.2 mb 0.00 in0.0 mm 0.00 in0.0 mm 0.00 in0.0 mm
10:30 AM 45.7°F7.6°C 39.2°F4.0°C 78% 5.0 mph W8.0 kmh W 8.9 mph14.3 kmh 29.24 in990.2 mb 0.00 in0.0 mm 0.00 in0.0 mm 0.00 in0.0 mm
10:35 AM 45.7°F7.6°C 39.2°F4.0°C 78% 4.4 mph WSW7.1 kmh WSW 7.8 mph12.6 kmh 29.24 in990.2 mb 0.00 in0.0 mm 0.00 in0.0 mm 0.00 in0.0 mm
10:40 AM 45.7°F7.6°C 39.2°F4.0°C 78% 3.6 mph WSW5.8 kmh WSW 7.6 mph12.2 kmh 29.24 in990.2 mb 0.00 in0.0 mm 0.00 in0.0 mm 0.00 in0.0 mm
10:45 AM 45.7°F7.6°C 39.2°F4.0°C 78% 4.5 mph WSW7.2 kmh WSW 8.1 mph13.0 kmh 29.24 in990.2 mb 0.00 in0.0 mm 0.00 in0.0 mm 0.00 in0.0 mm
10:50 AM 45.5°F7.5°C 39.2°F4.0°C 78% 4.8 mph WSW7.7 kmh WSW 8.1 mph13.0 kmh 29.24 in990.2 mb 0.00 in0.0 mm 0.00 in0.0 mm 0.00 in0.0 mm
10:55 AM 45.5°F7.5°C 39.2°F4.0°C 78% 3.8 mph WSW6.1 kmh WSW 7.6 mph12.2 kmh 29.24 in990.2 mb 0.00 in0.0 mm 0.00 in0.0 mm 0.00 in0.0 mm
11:00 AM 45.5°F7.5°C 39.2°F4.0°C 78% 5.4 mph WSW8.7 kmh WSW 10.7 mph17.2 kmh 29.24 in990.2 mb 0.00 in0.0 mm 0.00 in0.0 mm 0.00 in0.0 mm
11:05 AM 45.5°F7.5°C 39.2°F4.0°C 77% 6.9 mph WSW11.1 kmh WSW 10.7 mph17.2 kmh 29.24 in990.2 mb 0.00 in0.0 mm 0.00 in0.0 mm 0.00 in0.0 mm
11:10 AM 45.5°F7.5°C 39.2°F4.0°C 77% 6.5 mph SW10.5 kmh SW 7.8 mph12.6 kmh 29.24 in990.2 mb 0.00 in0.0 mm 0.00 in0.0 mm 0.00 in0.0 mm
11:15 AM 45.7°F7.6°C 39.2°F4.0°C 77% 5.6 mph WSW9.0 kmh WSW 7.8 mph12.6 kmh 29.24 in990.2 mb 0.00 in0.0 mm 0.00 in0.0 mm 0.00 in0.0 mm
11:20 AM 45.7°F7.6°C 39.2°F4.0°C 77% 5.2 mph WSW8.4 kmh WSW 7.6 mph12.2 kmh 29.24 in990.2 mb 0.00 in0.0 mm 0.00 in0.0 mm 0.00 in0.0 mm
11:25 AM 45.9°F7.7°C 39.2°F4.0°C 77% 6.0 mph WSW9.7 kmh WSW 10.3 mph16.6 kmh 29.24 in990.2 mb 0.00 in0.0 mm 0.00 in0.0 mm 0.00 in0.0 mm
11:30 AM 45.9°F7.7°C 39.2°F4.0°C 77% 6.5 mph WSW10.5 kmh WSW 10.3 mph16.6 kmh 29.24 in990.2 mb 0.00 in0.0 mm 0.00 in0.0 mm 0.00 in0.0 mm
11:35 AM 45.9°F7.7°C 39.2°F4.0°C 76% 6.4 mph WSW10.3 kmh WSW 8.7 mph14.0 kmh 29.24 in990.2 mb 0.00 in0.0 mm 0.00 in0.0 mm 0.00 in0.0 mm
11:40 AM 45.9°F7.7°C 39.2°F4.0°C 76% 6.2 mph WSW10.0 kmh WSW 9.8 mph15.8 kmh 29.24 in990.2 mb 0.00 in0.0 mm 0.00 in0.0 mm 0.00 in0.0 mm
11:45 AM 46.0°F7.8°C 39.2°F4.0°C 76% 5.6 mph W9.0 kmh W 10.1 mph16.3 kmh 29.24 in990.2 mb 0.00 in0.0 mm 0.00 in0.0 mm 0.00 in0.0 mm
11:50 AM 46.0°F7.8°C 39.2°F4.0°C 76% 5.7 mph W9.2 kmh W 10.1 mph16.3 kmh 29.24 in990.2 mb 0.00 in0.0 mm 0.00 in0.0 mm 0.00 in0.0 mm
11:55 AM 46.0°F7.8°C 39.2°F4.0°C 76% 7.3 mph W11.7 kmh W 10.7 mph17.2 kmh 29.24 in990.2 mb 0.00 in0.0 mm 0.00 in0.0 mm 0.00 in0.0 mm
12:00 PM 45.9°F7.7°C 39.2°F4.0°C 76% 8.1 mph W13.0 kmh W 10.7 mph17.2 kmh 29.24 in990.2 mb 0.00 in0.0 mm 0.00 in0.0 mm 0.00 in0.0 mm
12:05 PM 45.9°F7.7°C 39.2°F4.0°C 75% 7.7 mph WSW12.4 kmh WSW 12.8 mph20.6 kmh 29.21 in989.2 mb 0.00 in0.0 mm 0.00 in0.0 mm 0.00 in0.0 mm
12:10 PM 45.7°F7.6°C 39.2°F4.0°C 75% 8.3 mph WSW13.4 kmh WSW 12.8 mph20.6 kmh 29.21 in989.2 mb 0.00 in0.0 mm 0.00 in0.0 mm 0.00 in0.0 mm
12:15 PM 45.7°F7.6°C 39.2°F4.0°C 75% 7.8 mph WSW12.6 kmh WSW 12.3 mph19.8 kmh 29.21 in989.2 mb 0.00 in0.0 mm 0.00 in0.0 mm 0.00 in0.0 mm
12:20 PM 45.7°F7.6°C 37.4°F3.0°C 74% 6.5 mph WSW10.5 kmh WSW 12.3 mph19.8 kmh 29.24 in990.2 mb 0.00 in0.0 mm 0.00 in0.0 mm 0.00 in0.0 mm
12:25 PM 45.7°F7.6°C 37.4°F3.0°C 74% 6.5 mph WSW10.5 kmh WSW 8.7 mph14.0 kmh 29.24 in990.2 mb 0.00 in0.0 mm 0.00 in0.0 mm 0.00 in0.0 mm
12:30 PM 45.5°F7.5°C 37.4°F3.0°C 74% 6.9 mph WSW11.1 kmh WSW 8.7 mph14.0 kmh 29.24 in990.2 mb 0.00 in0.0 mm 0.00 in0.0 mm 0.00 in0.0 mm
12:35 PM 45.5°F7.5°C 37.4°F3.0°C 73% 7.6 mph WSW12.2 kmh WSW 12.8 mph20.6 kmh 29.24 in990.2 mb 0.00 in0.0 mm 0.00 in0.0 mm 0.00 in0.0 mm
12:40 PM 45.5°F7.5°C 37.4°F3.0°C 73% 8.4 mph WSW13.5 kmh WSW 12.8 mph20.6 kmh 29.24 in990.2 mb 0.00 in0.0 mm 0.00 in0.0 mm 0.00 in0.0 mm
12:45 PM 45.3°F7.4°C 37.4°F3.0°C 72% 7.2 mph WSW11.6 kmh WSW 10.7 mph17.2 kmh 29.24 in990.2 mb 0.00 in0.0 mm 0.00 in0.0 mm 0.00 in0.0 mm
12:50 PM 45.3°F7.4°C 37.4°F3.0°C 72% 7.6 mph WSW12.2 kmh WSW 11.9 mph19.2 kmh 29.21 in989.2 mb 0.00 in0.0 mm 0.00 in0.0 mm 0.00 in0.0 mm
12:55 PM 45.3°F7.4°C 37.4°F3.0°C 71% 9.2 mph WSW14.8 kmh WSW 14.5 mph23.3 kmh 29.21 in989.2 mb 0.00 in0.0 mm 0.00 in0.0 mm 0.00 in0.0 mm
01:00 PM 45.3°F7.4°C 35.6°F2.0°C 70% 8.5 mph WSW13.7 kmh WSW 14.5 mph23.3 kmh 29.21 in989.2 mb 0.00 in0.0 mm 0.00 in0.0 mm 0.00 in0.0 mm
01:05 PM 45.3°F7.4°C 35.6°F2.0°C 70% 7.2 mph W11.6 kmh W 12.1 mph19.5 kmh 29.21 in989.2 mb 0.00 in0.0 mm 0.00 in0.0 mm 0.00 in0.0 mm
01:10 PM 45.1°F7.3°C 35.6°F2.0°C 70% 7.2 mph WSW11.6 kmh WSW 12.1 mph19.5 kmh 29.21 in989.2 mb 0.00 in0.0 mm 0.00 in0.0 mm 0.00 in0.0 mm
01:15 PM 45.1°F7.3°C 35.6°F2.0°C 70% 6.3 mph WSW10.1 kmh WSW 9.2 mph14.8 kmh 29.21 in989.2 mb 0.00 in0.0 mm 0.00 in0.0 mm 0.00 in0.0 mm
01:20 PM 45.0°F7.2°C 35.6°F2.0°C 70% 6.3 mph W10.1 kmh W 11.0 mph17.7 kmh 29.21 in989.2 mb 0.00 in0.0 mm 0.00 in0.0 mm 0.00 in0.0 mm
01:25 PM 45.0°F7.2°C 35.6°F2.0°C 69% 6.3 mph W10.1 kmh W 11.0 mph17.7 kmh 29.21 in989.2 mb 0.00 in0.0 mm 0.00 in0.0 mm 0.00 in0.0 mm
01:30 PM 44.8°F7.1°C 35.6°F2.0°C 69% 7.1 mph WSW11.4 kmh WSW 8.7 mph14.0 kmh 29.21 in989.2 mb 0.00 in0.0 mm 0.00 in0.0 mm 0.00 in0.0 mm
01:35 PM 44.8°F7.1°C 35.6°F2.0°C 69% 7.3 mph W11.7 kmh W 10.1 mph16.3 kmh 29.21 in989.2 mb 0.00 in0.0 mm 0.00 in0.0 mm 0.00 in0.0 mm
01:40 PM 44.6°F7.0°C 35.6°F2.0°C 69% 6.4 mph W10.3 kmh W 10.1 mph16.3 kmh 29.21 in989.2 mb 0.00 in0.0 mm 0.00 in0.0 mm 0.00 in0.0 mm
01:45 PM 44.6°F7.0°C 35.6°F2.0°C 69% 6.3 mph WSW10.1 kmh WSW 9.4 mph15.1 kmh 29.21 in989.2 mb 0.00 in0.0 mm 0.00 in0.0 mm 0.00 in0.0 mm
01:50 PM 44.4°F6.9°C 35.6°F2.0°C 69% 7.6 mph WSW12.2 kmh WSW 10.1 mph16.3 kmh 29.21 in989.2 mb 0.00 in0.0 mm 0.00 in0.0 mm 0.00 in0.0 mm
01:55 PM 44.4°F6.9°C 35.6°F2.0°C 69% 7.1 mph WSW11.4 kmh WSW 10.1 mph16.3 kmh 29.21 in989.2 mb 0.00 in0.0 mm 0.00 in0.0 mm 0.00 in0.0 mm
02:00 PM 44.2°F6.8°C 35.6°F2.0°C 70% 6.3 mph WSW10.1 kmh WSW 8.7 mph14.0 kmh 29.21 in989.2 mb 0.00 in0.0 mm 0.00 in0.0 mm 0.00 in0.0 mm
02:05 PM 44.2°F6.8°C 35.6°F2.0°C 70% 6.2 mph WSW10.0 kmh WSW 8.7 mph14.0 kmh 29.21 in989.2 mb 0.00 in0.0 mm 0.00 in0.0 mm 0.00 in0.0 mm
02:10 PM 44.2°F6.8°C 35.6°F2.0°C 70% 6.1 mph WSW9.8 kmh WSW 8.5 mph13.7 kmh 29.21 in989.2 mb 0.00 in0.0 mm 0.00 in0.0 mm 0.00 in0.0 mm
02:15 PM 44.1°F6.7°C 35.6°F2.0°C 70% 6.6 mph WSW10.6 kmh WSW 9.6 mph15.4 kmh 29.21 in989.2 mb 0.00 in0.0 mm 0.00 in0.0 mm 0.00 in0.0 mm
02:20 PM 44.1°F6.7°C 35.6°F2.0°C 70% 6.1 mph WSW9.8 kmh WSW 9.6 mph15.4 kmh 29.21 in989.2 mb 0.00 in0.0 mm 0.00 in0.0 mm 0.00 in0.0 mm
02:25 PM 44.1°F6.7°C 35.6°F2.0°C 70% 5.0 mph WSW8.0 kmh WSW 7.6 mph12.2 kmh 29.21 in989.2 mb 0.00 in0.0 mm 0.00 in0.0 mm 0.00 in0.0 mm
02:30 PM 44.1°F6.7°C 35.6°F2.0°C 70% 5.4 mph WSW8.7 kmh WSW 8.5 mph13.7 kmh 29.21 in989.2 mb 0.00 in0.0 mm 0.00 in0.0 mm 0.00 in0.0 mm
02:35 PM 44.1°F6.7°C 35.6°F2.0°C 70% 5.9 mph WSW9.5 kmh WSW 8.5 mph13.7 kmh 29.21 in989.2 mb 0.00 in0.0 mm 0.00 in0.0 mm 0.00 in0.0 mm
02:40 PM 44.1°F6.7°C 35.6°F2.0°C 70% 6.6 mph WSW10.6 kmh WSW 10.5 mph16.9 kmh 29.21 in989.2 mb 0.00 in0.0 mm 0.00 in0.0 mm 0.00 in0.0 mm
02:45 PM 43.9°F6.6°C 33.8°F1.0°C 69% 7.6 mph WSW12.2 kmh WSW 12.5 mph20.1 kmh 29.21 in989.2 mb 0.00 in0.0 mm 0.00 in0.0 mm 0.00 in0.0 mm
02:50 PM 43.9°F6.6°C 33.8°F1.0°C 69% 8.5 mph WSW13.7 kmh WSW 13.2 mph21.2 kmh 29.21 in989.2 mb 0.00 in0.0 mm 0.00 in0.0 mm 0.00 in0.0 mm
02:55 PM 43.9°F6.6°C 33.8°F1.0°C 69% 8.0 mph WSW12.9 kmh WSW 13.2 mph21.2 kmh 29.21 in989.2 mb 0.00 in0.0 mm 0.00 in0.0 mm 0.00 in0.0 mm
03:00 PM 43.7°F6.5°C 33.8°F1.0°C 69% 6.6 mph WSW10.6 kmh WSW 10.5 mph16.9 kmh 29.21 in989.2 mb 0.00 in0.0 mm 0.00 in0.0 mm 0.00 in0.0 mm
03:05 PM 43.7°F6.5°C 33.8°F1.0°C 69% 5.7 mph WSW9.2 kmh WSW 8.7 mph14.0 kmh 29.21 in989.2 mb 0.00 in0.0 mm 0.00 in0.0 mm 0.00 in0.0 mm
03:10 PM 43.7°F6.5°C 33.8°F1.0°C 68% 6.5 mph WSW10.5 kmh WSW 8.7 mph14.0 kmh 29.21 in989.2 mb 0.00 in0.0 mm 0.00 in0.0 mm 0.00 in0.0 mm
03:15 PM 43.5°F6.4°C 33.8°F1.0°C 67% 7.6 mph WSW12.2 kmh WSW 8.7 mph14.0 kmh 29.21 in989.2 mb 0.00 in0.0 mm 0.00 in0.0 mm 0.00 in0.0 mm
03:20 PM 43.3°F6.3°C 33.8°F1.0°C 67% 7.8 mph WSW12.6 kmh WSW 10.7 mph17.2 kmh 29.18 in988.1 mb 0.00 in0.0 mm 0.00 in0.0 mm 0.00 in0.0 mm
03:25 PM 43.3°F6.3°C 33.8°F1.0°C 67% 8.4 mph WSW13.5 kmh WSW 10.7 mph17.2 kmh 29.18 in988.1 mb 0.00 in0.0 mm 0.00 in0.0 mm 0.00 in0.0 mm
03:30 PM 43.2°F6.2°C 33.8°F1.0°C 66% 8.6 mph WSW13.8 kmh WSW 11.0 mph17.7 kmh 29.18 in988.1 mb 0.00 in0.0 mm 0.00 in0.0 mm 0.00 in0.0 mm
03:35 PM 43.0°F6.1°C 32.0°F0.0°C 66% 6.9 mph W11.1 kmh W 11.0 mph17.7 kmh 29.21 in989.2 mb 0.00 in0.0 mm 0.00 in0.0 mm 0.00 in0.0 mm
03:40 PM 43.0°F6.1°C 32.0°F0.0°C 66% 5.8 mph WSW9.3 kmh WSW 9.8 mph15.8 kmh 29.21 in989.2 mb 0.00 in0.0 mm 0.00 in0.0 mm 0.00 in0.0 mm
03:45 PM 42.8°F6.0°C 32.0°F0.0°C 66% 6.6 mph WSW10.6 kmh WSW 10.5 mph16.9 kmh 29.21 in989.2 mb 0.00 in0.0 mm 0.00 in0.0 mm 0.00 in0.0 mm
03:50 PM 42.4°F5.8°C 32.0°F0.0°C 66% 7.3 mph WSW11.7 kmh WSW 11.0 mph17.7 kmh 29.21 in989.2 mb 0.00 in0.0 mm 0.00 in0.0 mm 0.00 in0.0 mm
03:55 PM 42.4°F5.8°C 32.0°F0.0°C 66% 7.9 mph WSW12.7 kmh WSW 11.0 mph17.7 kmh 29.21 in989.2 mb 0.00 in0.0 mm 0.00 in0.0 mm 0.00 in0.0 mm
04:00 PM 42.1°F5.6°C 32.0°F0.0°C 65% 7.5 mph WSW12.1 kmh WSW 11.0 mph17.7 kmh 29.21 in989.2 mb 0.00 in0.0 mm 0.00 in0.0 mm 0.00 in0.0 mm
04:05 PM 41.9°F5.5°C 32.0°F0.0°C 65% 7.9 mph WSW12.7 kmh WSW 12.1 mph19.5 kmh 29.21 in989.2 mb 0.00 in0.0 mm 0.00 in0.0 mm 0.00 in0.0 mm
04:10 PM 41.9°F5.5°C 32.0°F0.0°C 66% 7.7 mph WSW12.4 kmh WSW 12.1 mph19.5 kmh 29.21 in989.2 mb 0.00 in0.0 mm 0.00 in0.0 mm 0.00 in0.0 mm
04:15 PM 41.5°F5.3°C 32.0°F0.0°C 65% 6.4 mph WSW10.3 kmh WSW 10.1 mph16.3 kmh 29.21 in989.2 mb 0.00 in0.0 mm 0.00 in0.0 mm 0.00 in0.0 mm
04:20 PM 41.5°F5.3°C 32.0°F0.0°C 66% 7.3 mph WSW11.7 kmh WSW 11.2 mph18.0 kmh 29.21 in989.2 mb 0.00 in0.0 mm 0.00 in0.0 mm 0.00 in0.0 mm
04:25 PM 41.2°F5.1°C 30.2°F-1.0°C 66% 6.9 mph WSW11.1 kmh WSW 11.2 mph18.0 kmh 29.21 in989.2 mb 0.00 in0.0 mm 0.00 in0.0 mm 0.00 in0.0 mm
04:30 PM 41.0°F5.0°C 30.2°F-1.0°C 66% 5.7 mph WSW9.2 kmh WSW 8.5 mph13.7 kmh 29.21 in989.2 mb 0.00 in0.0 mm 0.00 in0.0 mm 0.00 in0.0 mm
04:35 PM 40.8°F4.9°C 30.2°F-1.0°C 67% 6.5 mph WSW10.5 kmh WSW 8.5 mph13.7 kmh 29.21 in989.2 mb 0.00 in0.0 mm 0.00 in0.0 mm 0.00 in0.0 mm
04:40 PM 40.8°F4.9°C 30.2°F-1.0°C 67% 7.4 mph WSW11.9 kmh WSW 8.9 mph14.3 kmh 29.21 in989.2 mb 0.00 in0.0 mm 0.00 in0.0 mm 0.00 in0.0 mm
04:45 PM 40.5°F4.7°C 30.2°F-1.0°C 67% 6.7 mph WSW10.8 kmh WSW 8.9 mph14.3 kmh 29.21 in989.2 mb 0.00 in0.0 mm 0.00 in0.0 mm 0.00 in0.0 mm
04:50 PM 40.5°F4.7°C 30.2°F-1.0°C 68% 5.4 mph WSW8.7 kmh WSW 7.4 mph11.9 kmh 29.21 in989.2 mb 0.00 in0.0 mm 0.00 in0.0 mm 0.00 in0.0 mm
04:55 PM 40.1°F4.5°C 30.2°F-1.0°C 68% 4.4 mph WSW7.1 kmh WSW 6.3 mph10.1 kmh 29.21 in989.2 mb 0.00 in0.0 mm 0.00 in0.0 mm 0.00 in0.0 mm
05:00 PM 39.9°F4.4°C 30.2°F-1.0°C 68% 4.2 mph WSW6.8 kmh WSW 6.0 mph9.7 kmh 29.21 in989.2 mb 0.00 in0.0 mm 0.00 in0.0 mm 0.00 in0.0 mm
05:05 PM 39.7°F4.3°C 30.2°F-1.0°C 68% 3.6 mph WSW5.8 kmh WSW 6.0 mph9.7 kmh 29.21 in989.2 mb 0.00 in0.0 mm 0.00 in0.0 mm 0.00 in0.0 mm
05:10 PM 39.6°F4.2°C 30.2°F-1.0°C 69% 3.5 mph WSW5.6 kmh WSW 6.5 mph10.5 kmh 29.21 in989.2 mb 0.00 in0.0 mm 0.00 in0.0 mm 0.00 in0.0 mm
05:15 PM 39.4°F4.1°C 30.2°F-1.0°C 69% 3.5 mph WSW5.6 kmh WSW 6.5 mph10.5 kmh 29.21 in989.2 mb 0.00 in0.0 mm 0.00 in0.0 mm 0.00 in0.0 mm
05:20 PM 39.4°F4.1°C 30.2°F-1.0°C 69% 3.0 mph W4.8 kmh W 4.3 mph6.9 kmh 29.21 in989.2 mb 0.00 in0.0 mm 0.00 in0.0 mm 0.00 in0.0 mm
05:25 PM 38.7°F3.7°C 30.2°F-1.0°C 69% 2.1 mph WNW3.4 kmh WNW 4.3 mph6.9 kmh 29.21 in989.2 mb 0.00 in0.0 mm 0.00 in0.0 mm 0.00 in0.0 mm
05:30 PM 38.3°F3.5°C 30.2°F-1.0°C 69% 1.1 mph N1.8 kmh N 2.0 mph3.2 kmh 29.21 in989.2 mb 0.00 in0.0 mm 0.00 in0.0 mm 0.00 in0.0 mm
05:35 PM 38.1°F3.4°C 30.2°F-1.0°C 70% 1.3 mph NNW2.1 kmh NNW 2.7 mph4.3 kmh 29.21 in989.2 mb 0.00 in0.0 mm 0.00 in0.0 mm 0.00 in0.0 mm
05:40 PM 38.3°F3.5°C 30.2°F-1.0°C 70% 2.0 mph WNW3.2 kmh WNW 3.4 mph5.5 kmh 29.21 in989.2 mb 0.00 in0.0 mm 0.00 in0.0 mm 0.00 in0.0 mm
05:45 PM 38.1°F3.4°C 30.2°F-1.0°C 70% 2.5 mph W4.0 kmh W 3.6 mph5.8 kmh 29.21 in989.2 mb 0.00 in0.0 mm 0.00 in0.0 mm 0.00 in0.0 mm
05:50 PM 37.8°F3.2°C 30.2°F-1.0°C 70% 2.0 mph WSW3.2 kmh WSW 3.6 mph5.8 kmh 29.21 in989.2 mb 0.00 in0.0 mm 0.00 in0.0 mm 0.00 in0.0 mm
05:55 PM 37.8°F3.2°C 30.2°F-1.0°C 70% 2.1 mph WSW3.4 kmh WSW 3.1 mph5.0 kmh 29.21 in989.2 mb 0.00 in0.0 mm 0.00 in0.0 mm 0.00 in0.0 mm
06:00 PM 37.6°F3.1°C 30.2°F-1.0°C 71% 2.3 mph WSW3.7 kmh WSW 3.1 mph5.0 kmh 29.21 in989.2 mb 0.00 in0.0 mm 0.00 in0.0 mm 0.00 in0.0 mm
06:05 PM 37.6°F3.1°C 30.2°F-1.0°C 71% 2.6 mph WSW4.2 kmh WSW 4.0 mph6.4 kmh 29.21 in989.2 mb 0.00 in0.0 mm 0.00 in0.0 mm 0.00 in0.0 mm
06:10 PM 38.1°F3.4°C 30.2°F-1.0°C 71% 3.4 mph WSW5.5 kmh WSW 4.0 mph6.4 kmh 29.21 in989.2 mb 0.00 in0.0 mm 0.00 in0.0 mm 0.00 in0.0 mm
06:15 PM 38.1°F3.4°C 30.2°F-1.0°C 71% 3.6 mph WSW5.8 kmh WSW 5.4 mph8.7 kmh 29.21 in989.2 mb 0.00 in0.0 mm 0.00 in0.0 mm 0.00 in0.0 mm
06:20 PM 38.1°F3.4°C 30.2°F-1.0°C 70% 3.7 mph WSW6.0 kmh WSW 5.4 mph8.7 kmh 29.21 in989.2 mb 0.00 in0.0 mm 0.00 in0.0 mm 0.00 in0.0 mm
06:25 PM 37.9°F3.3°C 30.2°F-1.0°C 70% 3.6 mph WSW5.8 kmh WSW 5.4 mph8.7 kmh 29.21 in989.2 mb 0.00 in0.0 mm 0.00 in0.0 mm 0.00 in0.0 mm
06:30 PM 37.9°F3.3°C 30.2°F-1.0°C 70% 4.0 mph WSW6.4 kmh WSW 7.2 mph11.6 kmh 29.21 in989.2 mb 0.00 in0.0 mm 0.00 in0.0 mm 0.00 in0.0 mm
06:35 PM 37.9°F3.3°C 30.2°F-1.0°C 70% 3.8 mph WSW6.1 kmh WSW 7.2 mph11.6 kmh 29.21 in989.2 mb 0.00 in0.0 mm 0.00 in0.0 mm 0.00 in0.0 mm
06:40 PM 37.6°F3.1°C 28.4°F-2.0°C 70% 2.6 mph SW4.2 kmh SW 4.0 mph6.4 kmh 29.21 in989.2 mb 0.00 in0.0 mm 0.00 in0.0 mm 0.00 in0.0 mm
06:45 PM 37.0°F2.8°C 30.2°F-1.0°C 71% 1.7 mph SW2.7 kmh SW 2.9 mph4.7 kmh 29.21 in989.2 mb 0.00 in0.0 mm 0.00 in0.0 mm 0.00 in0.0 mm
06:50 PM 36.7°F2.6°C 28.4°F-2.0°C 71% 0.9 mph SSW1.4 kmh SSW 2.0 mph3.2 kmh 29.21 in989.2 mb 0.00 in0.0 mm 0.00 in0.0 mm 0.00 in0.0 mm
06:55 PM 36.3°F2.4°C 28.4°F-2.0°C 71% 0.5 mph SSW0.8 kmh SSW 1.3 mph2.1 kmh 29.21 in989.2 mb 0.00 in0.0 mm 0.00 in0.0 mm 0.00 in0.0 mm
07:00 PM 36.1°F2.3°C 28.4°F-2.0°C 72% 0.5 mph SSW0.8 kmh SSW 2.2 mph3.5 kmh 29.21 in989.2 mb 0.00 in0.0 mm 0.00 in0.0 mm 0.00 in0.0 mm
07:05 PM 35.6°F2.0°C 28.4°F-2.0°C 72% 0.7 mph SW1.1 kmh SW 2.2 mph3.5 kmh 29.21 in989.2 mb 0.00 in0.0 mm 0.00 in0.0 mm 0.00 in0.0 mm
07:10 PM 35.6°F2.0°C 28.4°F-2.0°C 72% 0.6 mph SW1.0 kmh SW 2.2 mph3.5 kmh 29.21 in989.2 mb 0.00 in0.0 mm 0.00 in0.0 mm 0.00 in0.0 mm
07:15 PM 35.2°F1.8°C 26.6°F-3.0°C 72% 0.7 mph WSW1.1 kmh WSW 2.2 mph3.5 kmh 29.21 in989.2 mb 0.00 in0.0 mm 0.00 in0.0 mm 0.00 in0.0 mm
07:20 PM 35.2°F1.8°C 26.6°F-3.0°C 73% 0.8 mph SW1.3 kmh SW 2.2 mph3.5 kmh 29.21 in989.2 mb 0.00 in0.0 mm 0.00 in0.0 mm 0.00 in0.0 mm
07:25 PM 35.1°F1.7°C 26.6°F-3.0°C 73% 0.8 mph SW1.3 kmh SW 2.2 mph3.5 kmh 29.21 in989.2 mb 0.00 in0.0 mm 0.00 in0.0 mm 0.00 in0.0 mm
07:30 PM 34.5°F1.4°C 26.6°F-3.0°C 73% 0.7 mph SW1.1 kmh SW 1.6 mph2.6 kmh 29.21 in989.2 mb 0.00 in0.0 mm 0.00 in0.0 mm 0.00 in0.0 mm
07:35 PM 34.7°F1.5°C 26.6°F-3.0°C 73% 0.7 mph SW1.1 kmh SW 1.6 mph2.6 kmh 29.21 in989.2 mb 0.00 in0.0 mm 0.00 in0.0 mm 0.00 in0.0 mm
07:40 PM 34.5°F1.4°C 26.6°F-3.0°C 73% 0.6 mph SW1.0 kmh SW 1.6 mph2.6 kmh 29.21 in989.2 mb 0.00 in0.0 mm 0.00 in0.0 mm 0.00 in0.0 mm
07:45 PM 34.2°F1.2°C 26.6°F-3.0°C 73% 0.4 mph WSW0.6 kmh WSW 1.3 mph2.1 kmh 29.21 in989.2 mb 0.00 in0.0 mm 0.00 in0.0 mm 0.00 in0.0 mm
07:50 PM 34.0°F1.1°C 26.6°F-3.0°C 73% 0.2 mph WSW0.3 kmh WSW 1.1 mph1.8 kmh 29.24 in990.2 mb 0.00 in0.0 mm 0.00 in0.0 mm 0.00 in0.0 mm
07:55 PM 33.4°F0.8°C 26.6°F-3.0°C 73% Calm Calm -- 29.24 in990.2 mb 0.00 in0.0 mm 0.00 in0.0 mm 0.00 in0.0 mm
08:00 PM 33.3°F0.7°C 26.6°F-3.0°C 73% Calm Calm -- 29.24 in990.2 mb 0.00 in0.0 mm 0.00 in0.0 mm 0.00 in0.0 mm
08:05 PM 33.6°F0.9°C 26.6°F-3.0°C 74% Calm Calm -- 29.24 in990.2 mb 0.00 in0.0 mm 0.00 in0.0 mm 0.00 in0.0 mm
08:10 PM 33.4°F0.8°C 26.6°F-3.0°C 74% 0.1 mph SSW0.2 kmh SSW 1.1 mph1.8 kmh 29.24 in990.2 mb 0.00 in0.0 mm 0.00 in0.0 mm 0.00 in0.0 mm
08:15 PM 33.3°F0.7°C 26.6°F-3.0°C 74% 0.1 mph SSW0.2 kmh SSW 1.1 mph1.8 kmh 29.24 in990.2 mb 0.00 in0.0 mm 0.00 in0.0 mm 0.00 in0.0 mm
08:20 PM 33.3°F0.7°C 26.6°F-3.0°C 74% 0.4 mph WSW0.6 kmh WSW 3.4 mph5.5 kmh 29.24 in990.2 mb 0.00 in0.0 mm 0.00 in0.0 mm 0.00 in0.0 mm
08:25 PM 32.9°F0.5°C 26.6°F-3.0°C 74% 0.5 mph WSW0.8 kmh WSW 3.4 mph5.5 kmh 29.24 in990.2 mb 0.00 in0.0 mm 0.00 in0.0 mm 0.00 in0.0 mm
08:30 PM 32.5°F0.3°C 26.6°F-3.0°C 74% 0.1 mph WSW0.2 kmh WSW 1.1 mph1.8 kmh 29.24 in990.2 mb 0.00 in0.0 mm 0.00 in0.0 mm 0.00 in0.0 mm
08:35 PM 32.4°F0.2°C 24.8°F-4.0°C 74% 0.1 mph WSW0.2 kmh WSW 1.1 mph1.8 kmh 29.24 in990.2 mb 0.00 in0.0 mm 0.00 in0.0 mm 0.00 in0.0 mm
08:40 PM 32.4°F0.2°C 26.6°F-3.0°C 75% 0.5 mph WSW0.8 kmh WSW 2.7 mph4.3 kmh 29.24 in990.2 mb 0.00 in0.0 mm 0.00 in0.0 mm 0.00 in0.0 mm
08:45 PM 32.7°F0.4°C 26.6°F-3.0°C 75% 1.1 mph WSW1.8 kmh WSW 2.7 mph4.3 kmh 29.24 in990.2 mb 0.00 in0.0 mm 0.00 in0.0 mm 0.00 in0.0 mm
08:50 PM 32.9°F0.5°C 26.6°F-3.0°C 75% 1.3 mph SW2.1 kmh SW 2.5 mph4.0 kmh 29.24 in990.2 mb 0.00 in0.0 mm 0.00 in0.0 mm 0.00 in0.0 mm
08:55 PM 32.9°F0.5°C 26.6°F-3.0°C 76% 1.2 mph SW1.9 kmh SW 2.5 mph4.0 kmh 29.24 in990.2 mb 0.00 in0.0 mm 0.00 in0.0 mm 0.00 in0.0 mm
09:00 PM 32.7°F0.4°C 26.6°F-3.0°C 76% 0.8 mph WSW1.3 kmh WSW 2.2 mph3.5 kmh 29.24 in990.2 mb 0.00 in0.0 mm 0.00 in0.0 mm 0.00 in0.0 mm
09:05 PM 32.4°F0.2°C 26.6°F-3.0°C 75% 0.3 mph WSW0.5 kmh WSW 2.2 mph3.5 kmh 29.24 in990.2 mb 0.00 in0.0 mm 0.00 in0.0 mm 0.00 in0.0 mm
09:10 PM 32.2°F0.1°C 26.6°F-3.0°C 75% 0.1 mph NNE0.2 kmh NNE 0.9 mph1.4 kmh 29.24 in990.2 mb 0.00 in0.0 mm 0.00 in0.0 mm 0.00 in0.0 mm
09:15 PM 32.0°F0.0°C 23.0°F-5.0°C 75% 0.4 mph NE0.6 kmh NE 1.3 mph2.1 kmh 29.24 in990.2 mb 0.00 in0.0 mm 0.00 in0.0 mm 0.00 in0.0 mm
09:20 PM 31.8°F-0.1°C 23.0°F-5.0°C 75% 0.5 mph N0.8 kmh N 1.6 mph2.6 kmh 29.24 in990.2 mb 0.00 in0.0 mm 0.00 in0.0 mm 0.00 in0.0 mm
09:25 PM 31.8°F-0.1°C 23.0°F-5.0°C 76% 0.4 mph NNW0.6 kmh NNW 1.6 mph2.6 kmh 29.24 in990.2 mb 0.00 in0.0 mm 0.00 in0.0 mm 0.00 in0.0 mm
09:30 PM 32.0°F0.0°C 23.0°F-5.0°C 76% 0.8 mph NW1.3 kmh NW 2.5 mph4.0 kmh 29.24 in990.2 mb 0.00 in0.0 mm 0.00 in0.0 mm 0.00 in0.0 mm
09:35 PM 31.8°F-0.1°C 23.0°F-5.0°C 76% 0.8 mph W1.3 kmh W 2.5 mph4.0 kmh 29.24 in990.2 mb 0.00 in0.0 mm 0.00 in0.0 mm 0.00 in0.0 mm
09:40 PM 31.8°F-0.1°C 23.0°F-5.0°C 76% 0.9 mph WSW1.4 kmh WSW 2.0 mph3.2 kmh 29.24 in990.2 mb 0.00 in0.0 mm 0.00 in0.0 mm 0.00 in0.0 mm
09:45 PM 32.0°F0.0°C 23.0°F-5.0°C 76% 0.7 mph SW1.1 kmh SW 2.2 mph3.5 kmh 29.24 in990.2 mb 0.00 in0.0 mm 0.00 in0.0 mm 0.00 in0.0 mm
09:50 PM 32.0°F0.0°C 24.8°F-4.0°C 77% 0.4 mph SW0.6 kmh SW 2.2 mph3.5 kmh 29.24 in990.2 mb 0.00 in0.0 mm 0.00 in0.0 mm 0.00 in0.0 mm
09:55 PM 31.6°F-0.2°C 24.8°F-4.0°C 77% 0.3 mph SW0.5 kmh SW 2.2 mph3.5 kmh 29.24 in990.2 mb 0.00 in0.0 mm 0.00 in0.0 mm 0.00 in0.0 mm
10:00 PM 31.6°F-0.2°C 24.8°F-4.0°C 77% Calm Calm -- 29.24 in990.2 mb 0.00 in0.0 mm 0.00 in0.0 mm 0.00 in0.0 mm
10:05 PM 31.3°F-0.4°C 23.0°F-5.0°C 77% Calm Calm -- 29.24 in990.2 mb 0.00 in0.0 mm 0.00 in0.0 mm 0.00 in0.0 mm
10:10 PM 31.5°F-0.3°C 23.0°F-5.0°C 77% 0.3 mph WSW0.5 kmh WSW 2.5 mph4.0 kmh 29.24 in990.2 mb 0.00 in0.0 mm 0.00 in0.0 mm 0.00 in0.0 mm
10:15 PM 31.8°F-0.1°C 24.8°F-4.0°C 77% 0.6 mph WSW1.0 kmh WSW 2.5 mph4.0 kmh 29.24 in990.2 mb 0.00 in0.0 mm 0.00 in0.0 mm 0.00 in0.0 mm
10:20 PM 32.4°F0.2°C 26.6°F-3.0°C 78% 1.5 mph WSW2.4 kmh WSW 3.1 mph5.0 kmh 29.24 in990.2 mb 0.00 in0.0 mm 0.00 in0.0 mm 0.00 in0.0 mm
10:25 PM 32.2°F0.1°C 26.6°F-3.0°C 78% 1.5 mph WSW2.4 kmh WSW 3.1 mph5.0 kmh 29.24 in990.2 mb 0.00 in0.0 mm 0.00 in0.0 mm 0.00 in0.0 mm
10:30 PM 32.2°F0.1°C 26.6°F-3.0°C 78% 0.5 mph SW0.8 kmh SW 2.0 mph3.2 kmh 29.24 in990.2 mb 0.00 in0.0 mm 0.00 in0.0 mm 0.00 in0.0 mm
10:35 PM 31.8°F-0.1°C 24.8°F-4.0°C 78% 0.4 mph W0.6 kmh W 1.3 mph2.1 kmh 29.27 in991.2 mb 0.00 in0.0 mm 0.00 in0.0 mm 0.00 in0.0 mm
10:40 PM 31.3°F-0.4°C 23.0°F-5.0°C 78% 0.2 mph NNW0.3 kmh NNW 1.3 mph2.1 kmh 29.27 in991.2 mb 0.00 in0.0 mm 0.00 in0.0 mm 0.00 in0.0 mm
10:45 PM 31.1°F-0.5°C 23.0°F-5.0°C 77% 0.4 mph NW0.6 kmh NW 1.3 mph2.1 kmh 29.27 in991.2 mb 0.00 in0.0 mm 0.00 in0.0 mm 0.00 in0.0 mm
10:50 PM 31.3°F-0.4°C 23.0°F-5.0°C 78% 1.4 mph WSW2.3 kmh WSW 2.9 mph4.7 kmh 29.27 in991.2 mb 0.00 in0.0 mm 0.00 in0.0 mm 0.00 in0.0 mm
10:55 PM 32.0°F0.0°C 24.8°F-4.0°C 78% 2.3 mph WSW3.7 kmh WSW 2.9 mph4.7 kmh 29.27 in991.2 mb 0.00 in0.0 mm 0.00 in0.0 mm 0.00 in0.0 mm
11:00 PM 32.2°F0.1°C 26.6°F-3.0°C 77% 2.6 mph WSW4.2 kmh WSW 4.3 mph6.9 kmh 29.27 in991.2 mb 0.00 in0.0 mm 0.00 in0.0 mm 0.00 in0.0 mm
11:05 PM 32.9°F0.5°C 26.6°F-3.0°C 77% 3.2 mph WSW5.1 kmh WSW 4.3 mph6.9 kmh 29.27 in991.2 mb 0.00 in0.0 mm 0.00 in0.0 mm 0.00 in0.0 mm
11:10 PM 33.1°F0.6°C 26.6°F-3.0°C 77% 3.8 mph WSW6.1 kmh WSW 5.6 mph9.0 kmh 29.27 in991.2 mb 0.00 in0.0 mm 0.00 in0.0 mm 0.00 in0.0 mm
11:15 PM 33.1°F0.6°C 26.6°F-3.0°C 77% 3.5 mph WSW5.6 kmh WSW 5.6 mph9.0 kmh 29.27 in991.2 mb 0.00 in0.0 mm 0.00 in0.0 mm 0.00 in0.0 mm
11:20 PM 33.3°F0.7°C 26.6°F-3.0°C 77% 3.8 mph WSW6.1 kmh WSW 6.3 mph10.1 kmh 29.27 in991.2 mb 0.00 in0.0 mm 0.00 in0.0 mm 0.00 in0.0 mm
11:25 PM 33.3°F0.7°C 26.6°F-3.0°C 77% 3.1 mph WSW5.0 kmh WSW 6.3 mph10.1 kmh 29.27 in991.2 mb 0.00 in0.0 mm 0.00 in0.0 mm 0.00 in0.0 mm
11:30 PM 32.9°F0.5°C 26.6°F-3.0°C 78% 1.4 mph WSW2.3 kmh WSW 3.4 mph5.5 kmh 29.27 in991.2 mb 0.00 in0.0 mm 0.00 in0.0 mm 0.00 in0.0 mm
11:35 PM 32.4°F0.2°C 26.6°F-3.0°C 78% 0.9 mph W1.4 kmh W 1.6 mph2.6 kmh 29.27 in991.2 mb 0.00 in0.0 mm 0.00 in0.0 mm 0.00 in0.0 mm
11:40 PM 32.0°F0.0°C 24.8°F-4.0°C 78% 0.9 mph W1.4 kmh W 1.6 mph2.6 kmh 29.27 in991.2 mb 0.00 in0.0 mm 0.00 in0.0 mm 0.00 in0.0 mm
11:45 PM 32.7°F0.4°C 26.6°F-3.0°C 78% 1.7 mph WSW2.7 kmh WSW 3.4 mph5.5 kmh 29.27 in991.2 mb 0.00 in0.0 mm 0.00 in0.0 mm 0.00 in0.0 mm
11:50 PM 33.1°F0.6°C 26.6°F-3.0°C 78% 2.8 mph SW4.5 kmh SW 4.3 mph6.9 kmh 29.27 in991.2 mb 0.00 in0.0 mm 0.00 in0.0 mm 0.00 in0.0 mm
11:55 PM 32.9°F0.5°C 26.6°F-3.0°C 78% 3.0 mph WSW4.8 kmh WSW 4.3 mph6.9 kmh 29.27 in991.2 mb 0.00 in0.0 mm 0.00 in0.0 mm 0.00 in0.0 mm